createdAt,value
2022-11-21T00:00:57.011Z,307.13
2022-11-21T00:03:05.054Z,313.19
2022-11-21T00:05:13.788Z,313.42
2022-11-21T00:07:19.555Z,319.36
2022-11-21T00:09:30.055Z,334.03
2022-11-21T00:11:35.822Z,323.17
2022-11-21T00:13:42.628Z,320.44
2022-11-21T00:15:50.367Z,308.23
2022-11-21T00:18:14.416Z,336.94
2022-11-21T00:20:28.906Z,339.29
2022-11-21T00:22:41.314Z,359.45
2022-11-21T00:24:50.494Z,357.32
2022-11-21T00:26:58.906Z,355.59
2022-11-21T00:29:24.971Z,348.58
2022-11-21T00:31:31.538Z,341.65
2022-11-21T00:33:41.640Z,328.18
2022-11-21T00:35:51.024Z,327.70
2022-11-21T00:37:57.043Z,326.34
2022-11-21T00:40:20.031Z,319.44
2022-11-21T00:42:26.696Z,310.51
2022-11-21T00:44:38.805Z,308.22
2022-11-21T00:46:50.796Z,310.90
2022-11-21T00:48:57.722Z,306.67
2022-11-21T00:51:12.597Z,318.15
2022-11-21T00:53:18.653Z,322.96
2022-11-21T00:55:37.451Z,332.13
2022-11-21T00:57:43.406Z,331.46
2022-11-21T00:59:49.201Z,337.07
2022-11-21T01:01:56.221Z,350.00
2022-11-21T01:04:02.693Z,339.91
2022-11-21T01:06:13.776Z,341.97
2022-11-21T01:08:20.483Z,334.11
2022-11-21T01:10:26.195Z,335.54
2022-11-21T01:12:32.102Z,324.99
2022-11-21T01:14:38.860Z,331.24
2022-11-21T01:16:45.371Z,340.52
2022-11-21T01:18:52.471Z,343.16
2022-11-21T01:21:03.236Z,356.55
2022-11-21T01:23:11.799Z,326.38
2022-11-21T01:25:17.853Z,324.93
2022-11-21T01:27:26.108Z,388.23
2022-11-21T01:29:32.168Z,398.21
2022-11-21T01:31:38.637Z,415.69
2022-11-21T01:33:46.622Z,444.49
2022-11-21T01:35:52.374Z,449.48
2022-11-21T01:37:58.195Z,458.91
2022-11-21T01:40:08.643Z,457.24
2022-11-21T01:42:16.785Z,441.46
2022-11-21T01:44:27.297Z,436.30
2022-11-21T01:46:40.977Z,360.98
2022-11-21T01:49:15.974Z,349.78
2022-11-21T01:51:33.348Z,350.08
2022-11-21T01:53:45.463Z,354.52
2022-11-21T01:55:56.671Z,351.60
2022-11-21T01:58:04.763Z,386.68
2022-11-21T02:00:22.183Z,469.39
2022-11-21T02:02:35.970Z,398.32
2022-11-21T02:04:47.512Z,441.20
2022-11-21T02:06:55.405Z,430.71
2022-11-21T02:09:04.545Z,387.36
2022-11-21T02:11:24.883Z,301.00
2022-11-21T02:13:31.533Z,307.01
2022-11-21T02:15:41.602Z,294.16
2022-11-21T02:17:47.481Z,288.44
2022-11-21T02:20:01.075Z,297.62
2022-11-21T02:22:21.557Z,412.99
2022-11-21T02:24:41.457Z,321.29
2022-11-21T02:26:52.588Z,311.15
2022-11-21T02:39:53.048Z,367.67
2022-11-21T02:44:26.069Z,364.37
2022-11-21T02:46:34.504Z,367.35
2022-11-21T02:48:42.081Z,365.07
2022-11-21T02:50:50.653Z,365.16
2022-11-21T02:53:00.093Z,367.66
2022-11-21T02:55:06.126Z,352.90
2022-11-21T02:57:12.049Z,349.48
2022-11-21T02:59:21.389Z,333.83
2022-11-21T03:01:27.329Z,327.19
2022-11-21T03:03:36.568Z,312.04
2022-11-21T03:05:44.316Z,296.75
2022-11-21T03:07:50.632Z,284.40
2022-11-21T03:09:57.353Z,278.66
2022-11-21T03:12:09.946Z,276.09
2022-11-21T03:14:15.907Z,279.23
2022-11-21T03:16:24.537Z,293.78
2022-11-21T03:18:31.309Z,330.57
2022-11-21T03:23:11.423Z,313.10
2022-11-21T03:25:20.929Z,326.38
2022-11-21T03:27:38.985Z,355.61
2022-11-21T03:29:44.795Z,392.49
2022-11-21T03:32:04.171Z,400.67
2022-11-21T03:34:20.234Z,387.08
2022-11-21T03:36:26.162Z,405.53
2022-11-21T03:38:40.895Z,408.42
2022-11-21T03:40:46.600Z,415.66
2022-11-21T03:42:52.291Z,412.10
2022-11-21T03:44:59.044Z,398.96
2022-11-21T03:47:04.810Z,419.85
2022-11-21T03:49:11.807Z,531.91
2022-11-21T03:51:23.698Z,614.64
2022-11-21T03:53:29.442Z,502.77
2022-11-21T03:55:37.860Z,563.54
2022-11-21T03:57:44.639Z,447.19
2022-11-21T03:59:50.489Z,414.03
2022-11-21T04:06:31.579Z,434.45
2022-11-21T04:08:38.367Z,471.76
2022-11-21T04:10:50.298Z,395.75
2022-11-21T04:12:55.998Z,365.11
2022-11-21T04:15:02.862Z,378.70
2022-11-21T04:17:08.784Z,361.56
2022-11-21T04:19:14.840Z,366.62
2022-11-21T04:21:21.612Z,383.46
2022-11-21T04:23:31.544Z,412.14
2022-11-21T04:25:37.758Z,458.78
2022-11-21T04:27:44.378Z,496.37
2022-11-21T04:29:50.239Z,534.85
2022-11-21T04:31:56.134Z,512.02
2022-11-21T04:34:02.867Z,491.81
2022-11-21T04:36:17.015Z,499.44
2022-11-21T07:26:49.542Z,995.79
2022-11-21T07:28:56.719Z,989.32
2022-11-21T07:31:13.164Z,972.34
2022-11-21T07:33:23.786Z,917.71
2022-11-21T07:35:31.965Z,903.73
2022-11-21T07:37:42.470Z,928.14
2022-11-21T07:39:48.227Z,802.53
2022-11-21T07:41:57.336Z,948.28
2022-11-21T07:44:10.054Z,923.21
2022-11-21T07:46:36.327Z,850.71
2022-11-21T07:48:42.838Z,847.04
2022-11-21T07:50:48.464Z,847.97
2022-11-21T07:52:54.110Z,916.12
2022-11-21T07:55:02.537Z,921.84
2022-11-21T07:57:10.963Z,777.48
2022-11-21T07:59:19.416Z,684.52
2022-11-21T08:01:34.145Z,680.19
2022-11-21T08:03:39.933Z,706.40
2022-11-21T08:05:47.727Z,854.37
2022-11-21T08:07:55.483Z,959.41
2022-11-21T08:10:01.206Z,922.16
2022-11-21T08:12:26.485Z,888.87
2022-11-21T08:14:35.201Z,671.60
2022-11-21T08:16:56.487Z,667.11
2022-11-21T08:19:02.840Z,681.66
2022-11-21T16:19:04.260Z,350.62
2022-11-21T16:21:18.189Z,349.99
2022-11-21T16:23:23.909Z,348.47
2022-11-21T16:25:29.544Z,353.18
2022-11-21T16:27:36.338Z,346.04
2022-11-21T16:29:42.032Z,294.65
2022-11-21T16:31:55.313Z,304.70
2022-11-21T16:34:16.158Z,321.11
2022-11-21T16:36:26.747Z,317.05
2022-11-21T16:38:35.488Z,310.15
2022-11-21T16:40:42.435Z,300.93
2022-11-21T16:42:48.047Z,343.67
2022-11-21T16:44:56.153Z,390.60
2022-11-21T16:47:09.294Z,399.17
2022-11-21T16:49:23.766Z,494.65
2022-11-21T16:51:31.686Z,439.39
2022-11-21T16:53:38.171Z,387.30
2022-11-21T16:55:43.952Z,323.13
2022-11-21T16:57:49.830Z,314.73
2022-11-21T16:59:59.087Z,307.08
2022-11-21T17:02:07.831Z,325.39
2022-11-21T17:04:17.164Z,311.13
2022-11-21T17:06:31.262Z,294.75
2022-11-21T17:08:40.803Z,295.34
2022-11-21T17:10:46.585Z,332.75
2022-11-21T17:12:53.040Z,324.50
2022-11-21T17:14:58.678Z,337.36
2022-11-21T17:17:06.385Z,332.77
2022-11-21T17:19:16.456Z,319.09
2022-11-21T17:21:30.376Z,312.79
2022-11-21T17:23:41.925Z,300.88
2022-11-21T17:25:48.465Z,294.08
2022-11-21T17:27:54.249Z,313.83
2022-11-21T17:30:00.037Z,338.65
2022-11-21T17:32:09.384Z,328.86
2022-11-21T17:34:15.661Z,408.26
2022-11-21T17:36:24.720Z,399.18
2022-11-21T17:38:31.401Z,554.67
2022-11-21T17:40:39.777Z,460.32
2022-11-21T17:42:45.482Z,430.41
2022-11-21T17:44:52.075Z,382.30
2022-11-21T17:46:59.465Z,380.78
2022-11-21T17:49:05.474Z,378.46
2022-11-21T17:51:16.753Z,450.32
2022-11-21T17:53:22.576Z,483.03
2022-11-21T17:55:28.238Z,466.91
2022-11-21T17:57:37.330Z,447.69
2022-11-21T17:59:48.910Z,399.83
2022-11-21T18:01:54.725Z,414.88
2022-11-21T18:04:05.751Z,429.48
2022-11-21T18:06:17.748Z,409.79
2022-11-21T18:08:23.528Z,425.48
2022-11-21T18:10:43.375Z,465.77
2022-11-21T18:12:52.121Z,596.59
2022-11-21T18:14:57.800Z,475.58
2022-11-21T18:17:04.423Z,453.94
2022-11-21T18:19:10.666Z,507.69
2022-11-21T18:21:20.124Z,525.13
2022-11-21T18:34:57.566Z,466.52
2022-11-21T18:37:04.439Z,457.16
2022-11-21T18:39:14.806Z,513.26
2022-11-21T18:41:24.689Z,448.98
2022-11-21T18:43:31.423Z,419.62
2022-11-21T18:45:37.313Z,409.05
2022-11-21T18:47:43.852Z,393.04
2022-11-21T18:49:50.634Z,449.24
2022-11-21T18:51:59.810Z,495.24
2022-11-21T18:54:10.623Z,516.18
2022-11-21T18:56:19.176Z,554.59
2022-11-21T18:58:27.300Z,514.32
2022-11-21T19:00:33.258Z,508.82
2022-11-21T19:02:39.989Z,539.02
2022-11-21T19:04:45.941Z,564.91
2022-11-21T19:06:51.906Z,527.75
2022-11-21T19:09:08.520Z,496.06
2022-11-21T19:11:17.842Z,485.69
2022-11-21T19:13:24.048Z,475.90
2022-11-21T19:17:53.953Z,498.63
2022-11-21T19:22:32.125Z,522.59
2022-11-21T19:24:40.688Z,517.39
2022-11-21T19:26:47.169Z,512.83
2022-11-21T19:29:19.376Z,515.69
2022-11-21T19:31:25.247Z,468.29
2022-11-21T19:33:33.517Z,430.23
2022-11-21T19:35:40.989Z,445.30
2022-11-21T19:37:47.275Z,417.96
2022-11-21T19:39:55.781Z,421.59
2022-11-21T19:42:02.635Z,417.63
2022-11-21T19:44:08.890Z,404.49
2022-11-21T19:46:31.314Z,390.04
2022-11-21T19:48:38.275Z,450.71
2022-11-21T19:50:49.956Z,462.10
2022-11-21T19:52:58.304Z,534.51
2022-11-21T19:55:09.710Z,616.29
2022-11-21T19:57:16.068Z,560.92
2022-11-21T19:59:23.110Z,562.73
2022-11-21T20:01:34.074Z,548.70
2022-11-21T20:03:43.935Z,566.58
2022-11-21T20:05:52.342Z,620.07
2022-11-21T20:08:04.930Z,584.75
2022-11-21T20:10:17.927Z,507.87
2022-11-21T20:12:24.460Z,483.50
2022-11-21T20:14:31.678Z,504.98
2022-11-21T20:16:41.543Z,463.94
2022-11-21T20:18:47.881Z,473.51
2022-11-21T20:20:55.303Z,515.27
2022-11-21T20:23:01.739Z,523.33
2022-11-21T20:25:09.368Z,496.82
2022-11-21T20:27:19.052Z,592.93
2022-11-21T20:29:25.348Z,536.43
2022-11-21T20:31:35.291Z,476.81
2022-11-21T20:33:45.685Z,519.34
2022-11-21T20:35:51.783Z,530.36
2022-11-21T20:37:57.998Z,478.31
2022-11-21T20:40:05.275Z,475.07
2022-11-21T20:42:11.487Z,496.16
2022-11-21T20:44:57.059Z,496.93
2022-11-21T20:46:51.658Z,491.22
2022-11-21T20:49:01.275Z,498.91
2022-11-21T20:53:53.156Z,467.01
2022-11-21T20:56:05.573Z,476.24
2022-11-21T20:58:12.559Z,528.69
2022-11-21T21:00:23.077Z,567.02
2022-11-21T21:02:29.105Z,549.49
2022-11-21T21:04:35.274Z,533.20
2022-11-21T21:06:43.737Z,601.56
2022-11-21T21:08:51.429Z,595.97
2022-11-21T21:11:16.556Z,534.94
2022-11-21T21:13:33.753Z,491.44
2022-11-21T21:15:43.041Z,488.63
2022-11-21T21:17:51.474Z,502.60
2022-11-21T21:19:58.758Z,509.76
2022-11-21T21:22:05.217Z,577.60
2022-11-21T21:24:15.467Z,786.47
2022-11-21T21:26:26.421Z,631.83
2022-11-21T21:28:33.915Z,622.19
2022-11-21T21:30:45.329Z,683.66
2022-11-21T21:32:52.295Z,727.07
2022-11-21T21:34:59.366Z,773.48
2022-11-21T21:37:06.779Z,717.52
2022-11-21T21:39:15.188Z,734.60
2022-11-21T21:41:21.838Z,712.42
2022-11-21T21:43:27.929Z,725.60
2022-11-21T21:45:35.648Z,649.27
2022-11-21T21:47:44.368Z,678.64
2022-11-21T21:49:50.996Z,718.49
2022-11-21T21:51:58.010Z,664.26
2022-11-21T21:54:04.058Z,672.47
2022-11-21T21:56:11.576Z,779.74
2022-11-21T21:58:18.431Z,1266.87
2022-11-21T22:00:24.764Z,1001.70
2022-11-21T22:02:30.910Z,1010.41
2022-11-21T22:04:40.559Z,1066.84
2022-11-21T22:06:46.833Z,1001.74
2022-11-21T22:08:54.606Z,902.51
2022-11-21T22:11:07.669Z,796.68
2022-11-21T22:13:14.414Z,843.08
2022-11-21T22:15:20.595Z,873.94
2022-11-21T22:17:28.172Z,860.92
2022-11-21T22:19:34.720Z,789.02
2022-11-21T22:21:43.869Z,888.56
2022-11-21T22:24:17.778Z,877.56
2022-11-21T22:26:19.476Z,885.92
2022-11-21T22:28:25.699Z,922.58
2022-11-21T22:30:32.691Z,910.09
2022-11-21T22:32:39.256Z,874.41
2022-11-21T22:34:45.424Z,837.42
2022-11-21T22:36:55.067Z,819.43
2022-11-21T22:39:01.184Z,804.42
2022-11-21T22:41:10.798Z,773.35
2022-11-21T22:43:17.768Z,813.13
2022-11-21T22:45:24.018Z,800.90
2022-11-21T22:47:30.141Z,806.38
2022-11-21T22:49:37.020Z,794.18
2022-11-21T22:51:43.329Z,694.54
2022-11-21T22:53:53.916Z,628.04
2022-11-21T22:56:03.879Z,670.47
2022-11-21T22:58:10.384Z,683.35
2022-11-21T23:00:19.602Z,670.30
2022-11-21T23:02:26.784Z,713.38
2022-11-21T23:04:35.142Z,630.81
2022-11-21T23:06:41.911Z,609.46
2022-11-21T23:08:53.126Z,672.15
2022-11-21T23:11:06.577Z,654.16
2022-11-21T23:13:12.752Z,719.92
2022-11-21T23:15:20.279Z,776.37
2022-11-21T23:17:26.645Z,763.74
2022-11-21T23:19:32.818Z,793.23
2022-11-21T23:21:39.861Z,708.30
2022-11-21T23:23:46.945Z,668.03
2022-11-21T23:25:56.970Z,621.50
2022-11-21T23:28:03.981Z,585.25
2022-11-21T23:30:12.934Z,678.26
